Time;durP1;ratioP1;P1;durP2;ratioP2;P2;SDS_P1;SDS_P2;PMS_P1;PMS_P2;Temp;Humidity;BMP_temperature;BMP_pressure;BME280_temperature;BME280_humidity;BME280_pressure;Samples;Min_cycle;Max_cycle;Signal;HPM_P1;HPM_P2
2022/08/07 00:01:12;;;;;;;;;0.33;0.33;;;;;;;;4950335;28;45319;-77
2022/08/07 00:03:37;;;;;;;;;0.00;0.00;;;;;;;;4956857;28;45307;-77
2022/08/07 00:06:03;;;;;;;;;1.00;0.67;;;;;;;;4956306;28;45940;-77
2022/08/07 00:08:29;;;;;;;;;1.00;1.00;;;;;;;;4955068;28;45373;-77
2022/08/07 00:10:54;;;;;;;;;1.00;1.00;;;;;;;;4956350;28;45341;-78
2022/08/07 00:13:20;;;;;;;;;0.33;0.33;;;;;;;;4956607;28;45347;-76
2022/08/07 00:15:45;;;;;;;;;0.33;0.33;;;;;;;;4956643;28;46258;-77
2022/08/07 00:18:11;;;;;;;;;2.00;1.00;;;;;;;;4956769;28;45374;-76
2022/08/07 00:20:36;;;;;;;;;0.33;0.33;;;;;;;;4956688;28;45259;-77
2022/08/07 00:23:03;;;;;;;;;1.00;1.00;;;;;;;;4956689;28;45458;-77
2022/08/07 00:25:28;;;;;;;;;1.00;1.00;;;;;;;;4956732;28;47049;-78
2022/08/07 00:27:53;;;;;;;;;0.00;0.00;;;;;;;;4959158;28;45545;-78
2022/08/07 00:30:19;;;;;;;;;0.00;0.00;;;;;;;;4960004;28;45406;-77
2022/08/07 00:32:48;;;;;;;;;1.00;1.00;;;;;;;;4959839;28;45483;-76
2022/08/07 00:35:13;;;;;;;;;1.00;1.00;;;;;;;;4958753;28;46340;-77
2022/08/07 00:37:38;;;;;;;;;1.00;1.00;;;;;;;;4959046;28;45411;-77
2022/08/07 00:40:04;;;;;;;;;1.00;1.00;;;;;;;;4960005;28;45291;-77
2022/08/07 00:42:31;;;;;;;;;0.00;0.00;;;;;;;;4959491;28;45315;-78
2022/08/07 00:44:56;;;;;;;;;1.00;1.00;;;;;;;;4959545;28;45337;-77
2022/08/07 00:47:21;;;;;;;;;0.00;0.00;;;;;;;;4959777;28;45412;-77
2022/08/07 00:49:47;;;;;;;;;1.00;1.00;;;;;;;;4959575;28;45265;-77
2022/08/07 00:52:12;;;;;;;;;0.00;0.00;;;;;;;;4959888;28;45410;-78
2022/08/07 00:54:37;;;;;;;;;1.00;1.00;;;;;;;;4959261;28;46067;-78
2022/08/07 00:57:04;;;;;;;;;0.00;0.00;;;;;;;;4959154;28;45304;-77
2022/08/07 00:59:29;;;;;;;;;1.00;1.00;;;;;;;;4959685;28;45456;-78
2022/08/07 01:01:55;;;;;;;;;1.00;1.00;;;;;;;;4959146;28;45347;-79
2022/08/07 01:04:20;;;;;;;;;1.00;1.00;;;;;;;;4959437;28;46157;-78
2022/08/07 01:06:45;;;;;;;;;0.33;0.33;;;;;;;;4959387;28;45387;-77
2022/08/07 01:09:10;;;;;;;;;0.00;0.00;;;;;;;;4958893;28;45548;-78
2022/08/07 01:11:36;;;;;;;;;2.00;1.00;;;;;;;;4958762;28;45427;-77
2022/08/07 01:14:01;;;;;;;;;0.67;0.67;;;;;;;;4959014;28;46315;-77
2022/08/07 01:16:27;;;;;;;;;0.00;0.00;;;;;;;;4959238;28;45319;-76
2022/08/07 01:18:53;;;;;;;;;3.00;1.00;;;;;;;;4959102;28;45380;-77
2022/08/07 01:21:23;;;;;;;;;0.67;0.67;;;;;;;;4959510;28;45370;-77
2022/08/07 01:23:50;;;;;;;;;1.00;1.00;;;;;;;;4959149;28;46330;-78
2022/08/07 01:26:16;;;;;;;;;0.00;0.00;;;;;;;;4958714;28;45424;-77
2022/08/07 01:28:42;;;;;;;;;1.00;1.00;;;;;;;;4959306;28;45354;-78
2022/08/07 01:31:08;;;;;;;;;2.00;1.00;;;;;;;;4958103;28;45353;-77
2022/08/07 01:33:33;;;;;;;;;0.00;0.00;;;;;;;;4957632;28;46004;-77
2022/08/07 01:36:00;;;;;;;;;1.00;1.00;;;;;;;;4957640;28;45472;-78
2022/08/07 01:38:26;;;;;;;;;1.00;1.00;;;;;;;;4959072;28;45331;-77
2022/08/07 01:40:58;;;;;;;;;1.00;1.00;;;;;;;;4958679;28;45439;-77
2022/08/07 01:43:24;;;;;;;;;1.00;1.00;;;;;;;;4958391;28;45526;-77
2022/08/07 01:45:51;;;;;;;;;0.67;0.67;;;;;;;;4958915;28;45350;-77
2022/08/07 01:48:16;;;;;;;;;0.00;0.00;;;;;;;;4958777;28;45844;-78
2022/08/07 01:50:44;;;;;;;;;1.00;1.00;;;;;;;;4958850;28;45343;-77
2022/08/07 01:53:10;;;;;;;;;1.00;1.00;;;;;;;;4961144;28;46328;-77
2022/08/07 01:55:38;;;;;;;;;1.33;1.33;;;;;;;;4969436;28;45289;-77
2022/08/07 01:58:06;;;;;;;;;0.33;0.33;;;;;;;;4958753;28;45334;-77
2022/08/07 02:00:31;;;;;;;;;1.67;1.00;;;;;;;;4958563;28;45252;-78
2022/08/07 02:02:58;;;;;;;;;0.00;0.00;;;;;;;;4957874;28;46108;-78
2022/08/07 02:05:32;;;;;;;;;0.33;0.33;;;;;;;;4958388;28;45386;-78
2022/08/07 02:07:59;;;;;;;;;0.33;0.33;;;;;;;;4958129;28;45387;-78
2022/08/07 02:10:25;;;;;;;;;1.00;1.00;;;;;;;;4958064;28;45255;-76
2022/08/07 02:12:52;;;;;;;;;0.67;0.67;;;;;;;;4958326;28;46130;-77
2022/08/07 02:15:19;;;;;;;;;0.00;0.00;;;;;;;;4958456;28;45409;-77
2022/08/07 02:17:47;;;;;;;;;0.33;0.33;;;;;;;;4958451;28;45434;-77
2022/08/07 02:20:13;;;;;;;;;0.67;0.67;;;;;;;;4958407;28;45361;-77
2022/08/07 02:22:39;;;;;;;;;1.00;1.00;;;;;;;;4957916;28;45890;-77
2022/08/07 02:25:06;;;;;;;;;0.33;0.33;;;;;;;;4958130;28;45311;-78
2022/08/07 02:27:32;;;;;;;;;1.00;1.00;;;;;;;;4971816;28;45459;-78
2022/08/07 02:29:59;;;;;;;;;1.00;1.00;;;;;;;;4958030;28;45362;-76
2022/08/07 02:32:25;;;;;;;;;1.00;1.00;;;;;;;;4958083;28;46353;-77
2022/08/07 02:34:51;;;;;;;;;0.33;0.33;;;;;;;;4957284;28;45379;-76
2022/08/07 02:37:17;;;;;;;;;1.00;1.00;;;;;;;;4957865;28;45472;-77
2022/08/07 02:39:44;;;;;;;;;1.00;1.00;;;;;;;;4957867;28;45438;-77
2022/08/07 02:42:10;;;;;;;;;1.00;1.00;;;;;;;;4957493;28;46356;-77
2022/08/07 02:44:36;;;;;;;;;2.00;1.00;;;;;;;;4957488;28;45497;-76
2022/08/07 02:47:02;;;;;;;;;0.00;0.00;;;;;;;;4953684;28;45470;-77
2022/08/07 02:49:28;;;;;;;;;0.33;0.33;;;;;;;;4951307;28;45501;-77
2022/08/07 02:51:54;;;;;;;;;1.67;0.33;;;;;;;;4951673;28;46762;-77
2022/08/07 02:54:21;;;;;;;;;0.00;0.00;;;;;;;;4950451;28;45363;-77
2022/08/07 02:56:47;;;;;;;;;2.00;1.00;;;;;;;;4957759;28;45302;-77
2022/08/07 02:59:15;;;;;;;;;0.67;0.67;;;;;;;;4957915;28;45323;-77
2022/08/07 03:01:41;;;;;;;;;1.00;1.00;;;;;;;;4957317;28;48310;-77
2022/08/07 03:04:08;;;;;;;;;0.00;0.00;;;;;;;;4957517;28;45302;-77
2022/08/07 03:06:33;;;;;;;;;1.00;1.00;;;;;;;;4957476;28;45402;-77
2022/08/07 03:09:00;;;;;;;;;0.33;0.33;;;;;;;;4957419;28;45429;-77
2022/08/07 03:11:25;;;;;;;;;0.33;0.33;;;;;;;;4956036;28;46204;-77
2022/08/07 03:13:51;;;;;;;;;0.00;0.00;;;;;;;;4961897;28;45358;-77
2022/08/07 03:16:17;;;;;;;;;1.00;1.00;;;;;;;;4957655;28;45481;-77
2022/08/07 03:18:42;;;;;;;;;0.00;0.00;;;;;;;;4956815;28;45267;-77
2022/08/07 03:21:07;;;;;;;;;2.00;0.00;;;;;;;;4956650;28;46137;-77
2022/08/07 03:23:33;;;;;;;;;0.33;0.33;;;;;;;;4957301;28;45390;-77
2022/08/07 03:26:00;;;;;;;;;1.00;0.00;;;;;;;;4957296;28;45403;-78
2022/08/07 03:28:26;;;;;;;;;0.00;0.00;;;;;;;;4957521;28;45509;-77
2022/08/07 03:31:17;;;;;;;;;0.00;0.00;;;;;;;;4956985;28;45509;-77
2022/08/07 03:33:37;;;;;;;;;1.00;1.00;;;;;;;;4957239;28;45874;-77
2022/08/07 03:36:03;;;;;;;;;0.00;0.00;;;;;;;;4949759;28;45504;-76
2022/08/07 03:38:29;;;;;;;;;2.00;0.00;;;;;;;;4956736;28;45536;-78
2022/08/07 03:40:55;;;;;;;;;0.33;0.33;;;;;;;;4957170;28;46182;-78
2022/08/07 03:43:20;;;;;;;;;1.00;1.00;;;;;;;;4956897;28;45337;-76
2022/08/07 03:45:45;;;;;;;;;1.00;1.00;;;;;;;;4957265;28;45206;-76
2022/08/07 03:48:11;;;;;;;;;0.33;0.33;;;;;;;;4956831;28;45490;-77
2022/08/07 03:50:36;;;;;;;;;1.00;1.00;;;;;;;;4956743;28;46358;-78
2022/08/07 03:53:02;;;;;;;;;1.00;1.00;;;;;;;;4956940;28;45477;-77
2022/08/07 03:55:28;;;;;;;;;1.00;1.00;;;;;;;;4957232;28;45379;-77
2022/08/07 03:57:53;;;;;;;;;0.33;0.00;;;;;;;;4957191;28;45290;-77
2022/08/07 04:00:19;;;;;;;;;1.00;1.00;;;;;;;;4956322;28;46118;-77
2022/08/07 04:02:44;;;;;;;;;0.00;0.00;;;;;;;;4956880;28;45334;-78
2022/08/07 04:05:10;;;;;;;;;0.33;0.33;;;;;;;;4956767;28;45337;-77
2022/08/07 04:07:35;;;;;;;;;0.00;0.00;;;;;;;;4956324;28;45286;-78
2022/08/07 04:10:01;;;;;;;;;1.67;1.67;;;;;;;;4956913;28;46017;-77
2022/08/07 04:12:28;;;;;;;;;1.00;1.00;;;;;;;;4956331;28;45389;-77
2022/08/07 04:14:55;;;;;;;;;0.33;0.33;;;;;;;;4957071;28;45429;-77
2022/08/07 04:17:20;;;;;;;;;0.00;0.00;;;;;;;;4956700;28;45524;-77
2022/08/07 04:19:45;;;;;;;;;1.00;1.00;;;;;;;;4956162;28;46188;-77
2022/08/07 04:22:11;;;;;;;;;0.00;0.00;;;;;;;;4956803;28;45271;-77
2022/08/07 04:24:37;;;;;;;;;0.00;0.00;;;;;;;;4962012;28;45356;-77
2022/08/07 04:27:03;;;;;;;;;2.00;0.33;;;;;;;;4964737;28;45368;-77
2022/08/07 04:29:28;;;;;;;;;0.33;0.33;;;;;;;;4956461;28;46314;-77
2022/08/07 04:31:54;;;;;;;;;0.33;0.33;;;;;;;;4956573;28;45558;-78
2022/08/07 04:34:21;;;;;;;;;0.00;0.00;;;;;;;;4955944;28;45414;-77
2022/08/07 04:36:46;;;;;;;;;0.00;0.00;;;;;;;;4948602;28;45505;-78
2022/08/07 04:39:11;;;;;;;;;1.00;1.00;;;;;;;;4951836;28;46002;-77
2022/08/07 04:41:36;;;;;;;;;1.33;0.00;;;;;;;;4955971;28;45234;-78
2022/08/07 04:44:02;;;;;;;;;1.00;1.00;;;;;;;;4956565;28;45535;-77
2022/08/07 04:46:27;;;;;;;;;1.00;1.00;;;;;;;;4956128;28;45561;-77
2022/08/07 04:49:04;;;;;;;;;1.33;0.67;;;;;;;;4948417;28;45494;-77
2022/08/07 04:51:35;;;;;;;;;1.00;1.00;;;;;;;;4953483;28;45356;-77
2022/08/07 04:54:07;;;;;;;;;2.00;2.00;;;;;;;;4956567;28;45328;-77
2022/08/07 04:56:51;;;;;;;;;1.00;1.00;;;;;;;;4955865;28;45309;-77
2022/08/07 04:59:20;;;;;;;;;1.00;1.00;;;;;;;;4956334;28;47222;-77
2022/08/07 05:01:45;;;;;;;;;1.00;1.00;;;;;;;;4955866;28;45427;-77
2022/08/07 05:04:25;;;;;;;;;1.00;1.00;;;;;;;;4956247;28;45471;-77
2022/08/07 05:07:02;;;;;;;;;1.00;1.00;;;;;;;;4956022;28;45534;-77
2022/08/07 05:09:27;;;;;;;;;1.00;1.00;;;;;;;;4955670;28;46156;-77
2022/08/07 05:11:52;;;;;;;;;1.00;1.00;;;;;;;;4956518;28;45461;-78
2022/08/07 05:14:19;;;;;;;;;0.00;0.00;;;;;;;;4959567;28;45422;-77
2022/08/07 05:16:48;;;;;;;;;0.33;0.33;;;;;;;;4959098;28;45382;-77
2022/08/07 05:19:16;;;;;;;;;1.00;1.00;;;;;;;;4959105;28;47122;-77
2022/08/07 05:21:44;;;;;;;;;0.67;0.67;;;;;;;;4959166;28;45306;-78
2022/08/07 05:24:10;;;;;;;;;1.00;1.00;;;;;;;;4959176;28;45366;-78
2022/08/07 05:26:36;;;;;;;;;0.00;0.00;;;;;;;;4959335;28;45373;-77
2022/08/07 05:29:03;;;;;;;;;0.00;0.00;;;;;;;;4959296;28;45977;-78
2022/08/07 05:31:32;;;;;;;;;1.67;1.67;;;;;;;;4958368;28;45428;-78
2022/08/07 05:33:58;;;;;;;;;0.00;0.00;;;;;;;;4959288;28;45398;-77
2022/08/07 05:36:23;;;;;;;;;1.00;1.00;;;;;;;;4958579;28;45482;-77
2022/08/07 05:38:49;;;;;;;;;1.00;1.00;;;;;;;;4958106;28;46303;-79
2022/08/07 05:41:15;;;;;;;;;0.33;0.33;;;;;;;;4958835;28;45387;-77
2022/08/07 05:43:41;;;;;;;;;0.00;0.00;;;;;;;;4959182;28;45310;-77
2022/08/07 05:46:06;;;;;;;;;1.00;1.00;;;;;;;;4958466;28;45447;-78
2022/08/07 05:48:32;;;;;;;;;0.33;0.33;;;;;;;;4958515;28;46287;-77
2022/08/07 05:50:59;;;;;;;;;1.00;0.67;;;;;;;;4968673;28;45392;-78
2022/08/07 05:53:25;;;;;;;;;0.00;0.00;;;;;;;;4959799;28;45373;-77
2022/08/07 05:55:51;;;;;;;;;0.00;0.00;;;;;;;;4958688;28;45458;-78
2022/08/07 05:58:17;;;;;;;;;0.33;0.33;;;;;;;;4958317;28;46233;-79
2022/08/07 06:00:45;;;;;;;;;2.00;1.00;;;;;;;;4958299;28;45578;-78
2022/08/07 06:03:10;;;;;;;;;0.33;0.33;;;;;;;;4958195;28;45377;-78
2022/08/07 06:05:36;;;;;;;;;1.00;1.00;;;;;;;;4958717;28;45290;-78
2022/08/07 06:08:02;;;;;;;;;1.00;1.00;;;;;;;;4958442;28;46054;-78
2022/08/07 06:10:28;;;;;;;;;0.00;0.00;;;;;;;;4958489;28;45334;-77
2022/08/07 06:12:53;;;;;;;;;0.00;0.00;;;;;;;;4958315;28;45762;-79
2022/08/07 06:15:19;;;;;;;;;0.00;0.00;;;;;;;;4961081;28;45460;-78
2022/08/07 06:17:45;;;;;;;;;0.33;0.33;;;;;;;;4959322;28;45274;-77
2022/08/07 06:20:10;;;;;;;;;0.33;0.33;;;;;;;;4958118;28;45554;-79
2022/08/07 06:22:36;;;;;;;;;1.00;1.00;;;;;;;;4957294;28;45391;-79
2022/08/07 06:25:02;;;;;;;;;0.67;0.33;;;;;;;;4958492;28;45498;-78
2022/08/07 06:27:27;;;;;;;;;0.67;0.67;;;;;;;;4957974;28;46281;-78
2022/08/07 06:29:52;;;;;;;;;0.00;0.00;;;;;;;;4958039;28;45418;-78
2022/08/07 06:32:18;;;;;;;;;0.67;0.67;;;;;;;;4958144;28;45303;-78
2022/08/07 06:34:43;;;;;;;;;0.33;0.33;;;;;;;;4957633;28;45352;-78
2022/08/07 06:37:08;;;;;;;;;0.00;0.00;;;;;;;;4958159;28;46123;-78
2022/08/07 06:39:33;;;;;;;;;1.00;1.00;;;;;;;;4957999;28;45476;-77
2022/08/07 06:41:59;;;;;;;;;2.67;2.00;;;;;;;;4957907;28;45317;-77
2022/08/07 06:44:25;;;;;;;;;0.33;0.33;;;;;;;;4957125;28;45410;-78
2022/08/07 06:46:50;;;;;;;;;0.00;0.00;;;;;;;;4951914;28;46922;-78
2022/08/07 06:49:15;;;;;;;;;0.00;0.00;;;;;;;;4957943;28;45366;-78
2022/08/07 06:51:42;;;;;;;;;1.00;1.00;;;;;;;;4957873;28;45354;-78
2022/08/07 06:54:10;;;;;;;;;1.00;1.00;;;;;;;;4958112;28;45330;-79
2022/08/07 06:56:38;;;;;;;;;1.00;1.00;;;;;;;;4957654;28;46247;-77
2022/08/07 06:59:07;;;;;;;;;0.00;0.00;;;;;;;;4956805;28;45426;-78
2022/08/07 07:01:34;;;;;;;;;0.00;0.00;;;;;;;;4957737;28;45267;-79
2022/08/07 07:03:59;;;;;;;;;1.00;1.00;;;;;;;;4965338;28;45397;-78
2022/08/07 07:06:24;;;;;;;;;1.00;1.00;;;;;;;;4958916;28;45406;-78
2022/08/07 07:08:49;;;;;;;;;0.00;0.00;;;;;;;;4957362;28;45624;-78
2022/08/07 07:11:15;;;;;;;;;1.00;0.33;;;;;;;;4957923;28;45336;-78
2022/08/07 07:13:43;;;;;;;;;1.00;1.00;;;;;;;;4956815;28;45358;-78
2022/08/07 07:16:13;;;;;;;;;1.00;1.00;;;;;;;;4957389;28;46206;-78
2022/08/07 07:18:47;;;;;;;;;0.00;0.00;;;;;;;;4957485;28;45493;-78
2022/08/07 07:21:23;;;;;;;;;0.00;0.00;;;;;;;;4956994;28;45374;-78
2022/08/07 07:23:49;;;;;;;;;3.00;1.00;;;;;;;;4957100;28;45342;-77
2022/08/07 07:26:16;;;;;;;;;1.00;1.00;;;;;;;;4957032;28;46207;-79
2022/08/07 07:28:51;;;;;;;;;1.00;1.00;;;;;;;;4957064;28;46558;-77
2022/08/07 07:31:16;;;;;;;;;1.00;1.00;;;;;;;;4956942;28;45279;-78
2022/08/07 07:33:42;;;;;;;;;1.00;1.00;;;;;;;;4957354;28;45417;-78
2022/08/07 07:36:08;;;;;;;;;1.00;1.00;;;;;;;;4958671;28;46256;-78
2022/08/07 07:38:33;;;;;;;;;1.00;1.00;;;;;;;;4967429;28;45465;-78
2022/08/07 07:41:03;;;;;;;;;0.67;0.67;;;;;;;;4957143;28;45420;-79
2022/08/07 07:43:30;;;;;;;;;0.67;0.67;;;;;;;;4956854;28;45283;-78
2022/08/07 07:45:55;;;;;;;;;3.00;1.00;;;;;;;;4957064;28;46255;-78
2022/08/07 07:48:23;;;;;;;;;1.00;1.00;;;;;;;;4956985;28;45310;-79
2022/08/07 07:50:49;;;;;;;;;0.00;0.00;;;;;;;;4953507;28;45487;-79
2022/08/07 07:53:16;;;;;;;;;1.67;1.67;;;;;;;;4956853;28;45472;-78
2022/08/07 07:55:41;;;;;;;;;1.00;0.33;;;;;;;;4957234;28;45472;-78
2022/08/07 07:58:07;;;;;;;;;0.33;0.33;;;;;;;;4956213;28;45499;-78
2022/08/07 08:00:32;;;;;;;;;3.00;1.00;;;;;;;;4957089;28;45335;-78
2022/08/07 08:03:00;;;;;;;;;0.67;0.67;;;;;;;;4956915;28;45394;-78
2022/08/07 08:05:25;;;;;;;;;1.00;1.00;;;;;;;;4956618;28;46795;-79
2022/08/07 08:07:51;;;;;;;;;1.00;1.00;;;;;;;;4956384;28;45281;-78
2022/08/07 08:10:18;;;;;;;;;1.67;1.00;;;;;;;;4957010;28;45407;-77
2022/08/07 08:12:44;;;;;;;;;1.00;1.00;;;;;;;;4956523;28;45405;-78
2022/08/07 08:15:09;;;;;;;;;1.00;1.00;;;;;;;;4956511;28;46113;-78
2022/08/07 08:17:34;;;;;;;;;0.00;0.00;;;;;;;;4956666;28;45405;-78
2022/08/07 08:20:02;;;;;;;;;1.00;1.00;;;;;;;;4956783;28;45406;-78
2022/08/07 08:27:57;;;;;;;;;0.00;0.00;;;;;;;;4955778;28;45472;-78
2022/08/07 08:30:23;;;;;;;;;1.00;1.00;;;;;;;;4951494;28;45722;-78
2022/08/07 08:32:54;;;;;;;;;0.33;0.33;;;;;;;;4956430;28;45457;-78
2022/08/07 08:35:22;;;;;;;;;0.00;0.00;;;;;;;;4956092;28;46270;-78
2022/08/07 08:37:48;;;;;;;;;0.33;0.33;;;;;;;;4955973;28;45356;-78
2022/08/07 08:40:37;;;;;;;;;0.33;0.33;;;;;;;;4955629;28;45449;-78
2022/08/07 08:43:09;;;;;;;;;1.00;1.00;;;;;;;;4934095;28;45476;-78
2022/08/07 08:45:43;;;;;;;;;1.00;1.00;;;;;;;;4934449;28;45327;-78
2022/08/07 08:48:16;;;;;;;;;1.00;1.00;;;;;;;;4937431;28;46345;-78
2022/08/07 08:50:47;;;;;;;;;1.00;1.00;;;;;;;;4937138;28;46806;-78
2022/08/07 08:53:15;;;;;;;;;1.00;1.00;;;;;;;;4935119;28;45616;-77
2022/08/07 08:55:40;;;;;;;;;2.33;0.33;;;;;;;;4929048;28;45434;-78
2022/08/07 08:58:09;;;;;;;;;1.00;1.00;;;;;;;;4933628;28;45380;-78
2022/08/07 09:00:38;;;;;;;;;0.33;0.33;;;;;;;;4938262;28;45403;-79
2022/08/07 09:03:24;;;;;;;;;2.00;1.33;;;;;;;;4936200;28;45347;-79
2022/08/07 09:06:15;;;;;;;;;1.00;1.00;;;;;;;;4937309;28;47082;-78
2022/08/07 09:09:01;;;;;;;;;0.67;0.67;;;;;;;;4861197;29;45654;-79
2022/08/07 09:11:33;;;;;;;;;0.00;0.00;;;;;;;;4861560;29;45342;-78
2022/08/07 09:13:59;;;;;;;;;1.00;1.00;;;;;;;;4862009;29;45533;-78
2022/08/07 09:16:42;;;;;;;;;0.00;0.00;;;;;;;;4861952;29;46408;-78
2022/08/07 09:19:16;;;;;;;;;0.33;0.33;;;;;;;;4861614;29;45390;-77
2022/08/07 09:21:59;;;;;;;;;0.33;0.33;;;;;;;;4870774;29;45400;-78
2022/08/07 09:24:44;;;;;;;;;0.33;0.33;;;;;;;;4880350;29;45381;-78
2022/08/07 09:27:28;;;;;;;;;1.00;1.00;;;;;;;;4880509;29;46199;-78
2022/08/07 09:29:55;;;;;;;;;0.33;0.33;;;;;;;;4880246;29;45586;-78
2022/08/07 09:32:27;;;;;;;;;0.33;0.33;;;;;;;;4880502;29;45611;-78
2022/08/07 09:35:11;;;;;;;;;1.00;1.00;;;;;;;;4880842;29;45475;-78
2022/08/07 09:37:49;;;;;;;;;0.33;0.33;;;;;;;;4884575;28;45971;-78
2022/08/07 09:40:18;;;;;;;;;0.00;0.00;;;;;;;;4880085;29;45380;-78
2022/08/07 09:42:49;;;;;;;;;1.00;1.00;;;;;;;;4889678;29;45493;-78
2022/08/07 09:45:17;;;;;;;;;0.33;0.33;;;;;;;;4910970;28;45495;-78
2022/08/07 09:47:45;;;;;;;;;0.00;0.00;;;;;;;;4958695;28;47219;-78
2022/08/07 09:50:29;;;;;;;;;1.00;1.00;;;;;;;;4964492;28;45347;-79
2022/08/07 09:52:59;;;;;;;;;2.00;1.00;;;;;;;;4963269;28;45431;-79
2022/08/07 09:55:43;;;;;;;;;2.00;2.00;;;;;;;;4959076;28;45445;-77
2022/08/07 09:58:43;;;;;;;;;1.00;1.00;;;;;;;;4958699;28;46185;-78
2022/08/07 10:01:19;;;;;;;;;0.67;0.67;;;;;;;;4962216;28;45594;-78
2022/08/07 10:04:04;;;;;;;;;1.33;1.33;;;;;;;;4961779;28;45808;-78
2022/08/07 10:06:48;;;;;;;;;1.00;1.00;;;;;;;;4962291;28;45265;-78
2022/08/07 10:09:29;;;;;;;;;3.00;1.67;;;;;;;;4959709;28;45438;-78
2022/08/07 10:12:03;;;;;;;;;1.00;1.00;;;;;;;;4956392;28;45451;-79
2022/08/07 10:14:34;;;;;;;;;1.00;1.00;;;;;;;;4956451;28;45371;-78
2022/08/07 10:17:08;;;;;;;;;0.33;0.33;;;;;;;;4940098;28;45573;-78
2022/08/07 10:19:45;;;;;;;;;1.00;1.00;;;;;;;;4955971;28;46462;-77
2022/08/07 10:22:27;;;;;;;;;1.67;1.00;;;;;;;;4961611;28;45383;-77
2022/08/07 10:25:06;;;;;;;;;0.67;0.67;;;;;;;;4956518;28;45415;-78
2022/08/07 10:27:43;;;;;;;;;1.00;1.00;;;;;;;;4942470;28;45521;-77
2022/08/07 10:30:10;;;;;;;;;0.33;0.33;;;;;;;;4956098;28;45523;-77
2022/08/07 10:32:54;;;;;;;;;3.00;1.00;;;;;;;;4953665;28;45507;-77
2022/08/07 10:35:26;;;;;;;;;2.00;2.00;;;;;;;;4956904;28;45442;-77
2022/08/07 10:38:00;;;;;;;;;1.67;1.67;;;;;;;;4957390;28;45518;-78
2022/08/07 10:40:47;;;;;;;;;0.33;0.33;;;;;;;;4957438;28;46179;-78
2022/08/07 10:43:23;;;;;;;;;1.00;1.00;;;;;;;;4957782;28;45365;-78
2022/08/07 10:45:49;;;;;;;;;0.67;0.67;;;;;;;;4958138;28;45332;-78
2022/08/07 10:48:34;;;;;;;;;3.00;1.67;;;;;;;;4958035;28;45394;-78
2022/08/07 10:51:02;;;;;;;;;1.33;1.33;;;;;;;;4956726;28;46890;-79
2022/08/07 10:53:46;;;;;;;;;1.33;1.33;;;;;;;;4957653;28;45307;-78
2022/08/07 10:56:23;;;;;;;;;1.00;1.00;;;;;;;;4957923;28;45465;-77
2022/08/07 10:58:55;;;;;;;;;3.00;1.00;;;;;;;;4957052;28;45419;-78
2022/08/07 11:01:28;;;;;;;;;1.00;1.00;;;;;;;;4957739;28;45528;-78
2022/08/07 11:04:04;;;;;;;;;1.00;1.00;;;;;;;;4957776;28;45501;-77
2022/08/07 11:06:52;;;;;;;;;1.33;1.33;;;;;;;;4957538;28;45230;-78
2022/08/07 11:09:19;;;;;;;;;1.00;1.00;;;;;;;;4956492;28;45275;-78
2022/08/07 11:12:10;;;;;;;;;1.33;1.00;;;;;;;;4957286;28;45385;-78
2022/08/07 11:14:40;;;;;;;;;1.00;1.00;;;;;;;;4958017;28;45305;-77
2022/08/07 11:17:17;;;;;;;;;1.00;1.00;;;;;;;;4957547;28;45362;-78
2022/08/07 11:20:00;;;;;;;;;2.33;1.00;;;;;;;;4964234;28;45725;-77
2022/08/07 11:22:39;;;;;;;;;2.33;0.33;;;;;;;;4961267;28;47042;-78
2022/08/07 11:25:10;;;;;;;;;1.00;1.00;;;;;;;;4956185;28;45382;-78
2022/08/07 11:27:44;;;;;;;;;1.00;1.00;;;;;;;;4957139;28;45406;-77
2022/08/07 11:30:20;;;;;;;;;0.67;0.67;;;;;;;;4957579;28;45545;-77
2022/08/07 11:33:01;;;;;;;;;0.33;0.33;;;;;;;;4956857;28;47021;-78
2022/08/07 11:35:32;;;;;;;;;0.33;0.33;;;;;;;;4956524;28;45469;-77
2022/08/07 11:38:13;;;;;;;;;1.00;0.33;;;;;;;;4956969;28;45359;-78
2022/08/07 11:40:41;;;;;;;;;1.00;1.00;;;;;;;;4957218;28;45346;-78
2022/08/07 11:43:22;;;;;;;;;1.00;1.00;;;;;;;;4956809;28;45326;-78
2022/08/07 11:45:47;;;;;;;;;0.33;0.33;;;;;;;;4957245;28;45380;-78
2022/08/07 11:48:18;;;;;;;;;1.00;1.00;;;;;;;;4956814;28;45420;-78
2022/08/07 11:50:51;;;;;;;;;1.00;1.00;;;;;;;;4957111;28;45388;-78
2022/08/07 11:53:29;;;;;;;;;2.00;1.00;;;;;;;;4956716;28;46221;-79
2022/08/07 11:55:59;;;;;;;;;1.67;1.67;;;;;;;;4957148;28;45434;-78
2022/08/07 11:58:29;;;;;;;;;0.33;0.33;;;;;;;;4956444;28;45395;-79
2022/08/07 12:00:55;;;;;;;;;0.00;0.00;;;;;;;;4957121;28;45353;-78
2022/08/07 12:03:35;;;;;;;;;1.67;1.67;;;;;;;;4956279;28;46083;-76
2022/08/07 12:06:03;;;;;;;;;1.00;1.00;;;;;;;;4957005;28;45398;-79
2022/08/07 12:08:31;;;;;;;;;1.33;1.33;;;;;;;;4956325;28;45386;-78
2022/08/07 12:10:56;;;;;;;;;0.33;0.33;;;;;;;;4956452;28;45393;-78
2022/08/07 12:13:21;;;;;;;;;1.00;1.00;;;;;;;;4956776;28;45559;-78
2022/08/07 12:15:49;;;;;;;;;1.00;1.00;;;;;;;;4956714;28;45293;-77
2022/08/07 12:18:33;;;;;;;;;2.00;1.00;;;;;;;;4956684;28;45543;-78
2022/08/07 12:21:13;;;;;;;;;0.33;0.33;;;;;;;;4957633;28;45343;-78
2022/08/07 12:23:57;;;;;;;;;1.00;1.00;;;;;;;;4959617;28;46168;-78
2022/08/07 12:26:26;;;;;;;;;1.00;1.00;;;;;;;;4960109;28;45257;-77
2022/08/07 12:29:00;;;;;;;;;0.67;0.67;;;;;;;;4959812;28;45362;-78
2022/08/07 12:31:40;;;;;;;;;1.33;1.33;;;;;;;;4959748;28;45500;-77
2022/08/07 12:34:07;;;;;;;;;0.33;0.33;;;;;;;;4959878;28;46346;-77
2022/08/07 12:36:33;;;;;;;;;1.00;1.00;;;;;;;;4954076;28;45409;-77
2022/08/07 12:39:00;;;;;;;;;0.67;0.67;;;;;;;;4953641;28;45436;-78
2022/08/07 12:41:27;;;;;;;;;0.33;0.33;;;;;;;;4959529;28;45390;-78
2022/08/07 12:43:53;;;;;;;;;1.00;1.00;;;;;;;;4959739;28;46332;-77
2022/08/07 12:46:37;;;;;;;;;2.00;2.00;;;;;;;;4959251;28;45315;-78
2022/08/07 12:49:11;;;;;;;;;0.33;0.33;;;;;;;;4959718;28;45490;-78
2022/08/07 12:51:47;;;;;;;;;1.00;1.00;;;;;;;;4959572;28;45263;-78
2022/08/07 12:54:28;;;;;;;;;0.33;0.33;;;;;;;;4959669;28;47176;-78
2022/08/07 12:56:55;;;;;;;;;1.00;1.00;;;;;;;;4959464;28;45505;-77
2022/08/07 12:59:24;;;;;;;;;1.00;1.00;;;;;;;;4959947;28;45357;-78
2022/08/07 13:01:49;;;;;;;;;1.00;1.00;;;;;;;;4959106;28;45294;-78
2022/08/07 13:04:27;;;;;;;;;1.00;1.00;;;;;;;;4959276;28;46278;-78
2022/08/07 13:06:52;;;;;;;;;1.00;1.00;;;;;;;;4958663;28;45311;-78
2022/08/07 13:09:36;;;;;;;;;0.00;0.00;;;;;;;;4959789;28;45414;-78
2022/08/07 13:12:10;;;;;;;;;0.25;0.25;;;;;;;;4959117;28;45378;-78
2022/08/07 13:14:51;;;;;;;;;1.00;1.00;;;;;;;;4959510;28;45570;-78
2022/08/07 13:17:22;;;;;;;;;0.33;0.33;;;;;;;;4958265;28;45318;-77
2022/08/07 13:19:53;;;;;;;;;2.00;0.00;;;;;;;;4951991;28;45453;-78
2022/08/07 13:22:29;;;;;;;;;0.33;0.33;;;;;;;;4958301;28;45333;-78
2022/08/07 13:25:08;;;;;;;;;1.00;1.00;;;;;;;;4959237;28;47196;-79
2022/08/07 13:27:33;;;;;;;;;1.00;1.00;;;;;;;;4958491;28;45332;-79
2022/08/07 13:30:01;;;;;;;;;1.00;1.00;;;;;;;;4959159;28;46918;-79
2022/08/07 13:32:53;;;;;;;;;2.00;2.00;;;;;;;;4957109;28;45322;-78
2022/08/07 13:35:25;;;;;;;;;0.33;0.33;;;;;;;;4975567;28;46070;-79
2022/08/07 13:38:02;;;;;;;;;0.33;0.33;;;;;;;;4976187;28;46511;-79
2022/08/07 13:40:30;;;;;;;;;1.00;1.00;;;;;;;;4976535;28;45445;-79
2022/08/07 13:42:58;;;;;;;;;1.00;0.33;;;;;;;;4975760;28;45549;-78
2022/08/07 13:45:24;;;;;;;;;2.00;2.00;;;;;;;;4975773;28;46088;-79
2022/08/07 13:47:51;;;;;;;;;0.00;0.00;;;;;;;;4976195;28;45392;-78
2022/08/07 13:50:18;;;;;;;;;0.33;0.33;;;;;;;;4976221;28;45425;-79
2022/08/07 13:52:45;;;;;;;;;1.00;1.00;;;;;;;;4976219;28;45371;-76
2022/08/07 13:55:12;;;;;;;;;2.00;2.00;;;;;;;;4976229;28;46964;-77
2022/08/07 13:57:39;;;;;;;;;1.00;1.00;;;;;;;;4970650;28;45378;-76
2022/08/07 14:00:07;;;;;;;;;2.00;2.00;;;;;;;;4975625;28;45339;-77
2022/08/07 14:02:33;;;;;;;;;0.33;0.33;;;;;;;;4975991;28;45451;-77
2022/08/07 14:05:03;;;;;;;;;1.00;1.00;;;;;;;;4963539;28;46167;-77
2022/08/07 14:07:32;;;;;;;;;1.00;1.00;;;;;;;;4975803;28;45448;-77
2022/08/07 14:09:59;;;;;;;;;2.00;2.00;;;;;;;;4975784;28;45407;-78
2022/08/07 14:12:50;;;;;;;;;0.67;0.67;;;;;;;;4959786;28;45445;-78
2022/08/07 14:15:34;;;;;;;;;1.00;1.00;;;;;;;;4957743;28;46403;-78
2022/08/07 14:18:07;;;;;;;;;1.00;1.00;;;;;;;;4958414;28;45380;-77
2022/08/07 14:20:35;;;;;;;;;1.00;1.00;;;;;;;;4952793;28;45450;-78
2022/08/07 14:23:01;;;;;;;;;1.00;0.33;;;;;;;;4958059;28;45549;-78
2022/08/07 14:25:29;;;;;;;;;1.00;1.00;;;;;;;;4957117;28;47056;-78
2022/08/07 14:27:54;;;;;;;;;1.00;1.00;;;;;;;;4957399;28;45392;-78
2022/08/07 14:30:21;;;;;;;;;1.00;1.00;;;;;;;;4957111;28;45482;-79
2022/08/07 14:32:49;;;;;;;;;0.33;0.33;;;;;;;;4958008;28;45517;-78
2022/08/07 14:35:31;;;;;;;;;0.67;0.67;;;;;;;;4957887;28;45409;-78
2022/08/07 14:37:57;;;;;;;;;0.33;0.33;;;;;;;;4957931;28;45416;-78
2022/08/07 14:40:24;;;;;;;;;3.67;1.33;;;;;;;;4958024;28;45374;-78
2022/08/07 14:42:58;;;;;;;;;1.00;1.00;;;;;;;;4961470;28;45526;-78
2022/08/07 14:45:29;;;;;;;;;2.33;1.00;;;;;;;;4957960;28;47057;-77
2022/08/07 14:47:57;;;;;;;;;1.33;1.33;;;;;;;;4957973;28;45406;-78
2022/08/07 14:50:24;;;;;;;;;1.00;1.00;;;;;;;;4958222;28;45369;-78
2022/08/07 14:52:50;;;;;;;;;0.33;0.33;;;;;;;;4958122;28;45438;-78
2022/08/07 14:55:16;;;;;;;;;1.00;0.33;;;;;;;;4944529;28;45363;-78
2022/08/07 14:57:45;;;;;;;;;0.33;0.33;;;;;;;;4957656;28;45356;-78
2022/08/07 15:00:11;;;;;;;;;2.00;2.00;;;;;;;;4957660;28;45610;-78
2022/08/07 15:02:37;;;;;;;;;2.00;1.33;;;;;;;;4957742;28;45419;-78